Time;durP1;ratioP1;P1;durP2;ratioP2;P2;SDS_P1;SDS_P2;PMS_P1;PMS_P2;Temp;Humidity;BMP_temperature;BMP_pressure;BME280_temperature;BME280_humidity;BME280_pressure;Samples;Min_cycle;Max_cycle;Signal;HPM_P1;HPM_P2
2022/09/13 00:00:05;;;;;;;50.63;47.90;;;;;;;22.44;51.65;100918.44;5076292;28;20041;-73
2022/09/13 00:02:31;;;;;;;52.97;49.97;;;;;;;22.43;51.57;100916.84;5064867;28;20037;-73
2022/09/13 00:04:56;;;;;;;53.85;51.03;;;;;;;22.42;51.69;100920.69;5049135;28;20044;-72
2022/09/13 00:07:22;;;;;;;52.38;49.47;;;;;;;22.41;52.07;100902.56;5050890;28;20052;-73
2022/09/13 00:09:47;;;;;;;51.63;48.72;;;;;;;22.39;52.12;100896.56;5035696;28;20504;-74
2022/09/13 00:12:12;;;;;;;55.25;52.05;;;;;;;22.39;52.03;100898.53;5043417;28;20040;-74
2022/09/13 00:14:38;;;;;;;52.67;49.58;;;;;;;22.38;51.98;100902.41;5040566;28;20370;-73
2022/09/13 00:17:03;;;;;;;51.58;48.50;;;;;;;22.36;51.74;100897.22;5046166;28;20125;-73
2022/09/13 00:19:28;;;;;;;50.80;47.80;;;;;;;22.35;51.87;100894.78;5051860;28;20465;-75
2022/09/13 00:21:54;;;;;;;51.53;48.63;;;;;;;22.33;52.25;100892.34;5030586;28;20385;-74
2022/09/13 00:24:19;;;;;;;53.05;50.15;;;;;;;22.33;52.14;100886.03;5070516;28;22220;-74
2022/09/13 00:26:44;;;;;;;51.88;49.08;;;;;;;22.30;52.20;100884.75;5032064;28;20033;-75
2022/09/13 00:29:10;;;;;;;51.55;48.45;;;;;;;22.30;51.84;100878.41;5064042;28;20036;-72
2022/09/13 00:31:35;;;;;;;52.42;49.50;;;;;;;22.28;52.08;100878.75;5053014;28;20112;-73
2022/09/13 00:34:01;;;;;;;49.58;46.70;;;;;;;22.27;52.23;100881.81;5046715;28;20041;-73
2022/09/13 00:36:27;;;;;;;52.30;49.38;;;;;;;22.25;52.26;100885.69;5035035;28;20025;-73
2022/09/13 00:38:52;;;;;;;52.50;49.65;;;;;;;22.23;52.30;100876.94;5059955;28;20107;-72
2022/09/13 00:41:19;;;;;;;51.97;48.85;;;;;;;22.22;52.01;100863.50;5052897;28;20124;-73
2022/09/13 00:43:55;;;;;;;52.95;50.13;;;;;;;22.22;51.96;100866.25;5066078;28;20056;-74
2022/09/13 00:46:42;;;;;;;51.25;48.42;;;;;;;22.20;52.15;100863.00;5033788;28;20029;-76
2022/09/13 00:49:17;;;;;;;54.70;51.35;;;;;;;22.17;51.89;100858.91;5051874;28;20523;-72
2022/09/13 00:51:48;;;;;;;53.28;49.83;;;;;;;22.17;52.23;100861.66;5054437;28;20036;-72
2022/09/13 00:54:15;;;;;;;51.97;49.08;;;;;;;22.16;52.22;100856.50;5042698;28;20025;-73
2022/09/13 00:56:46;;;;;;;51.75;48.78;;;;;;;22.14;52.27;100856.00;5046261;28;20485;-73
2022/09/13 00:59:17;;;;;;;50.03;47.22;;;;;;;22.13;52.13;100851.63;5049819;28;20056;-74
2022/09/13 01:01:47;;;;;;;51.75;48.85;;;;;;;22.11;51.97;100857.44;5054230;28;20029;-72
2022/09/13 01:04:14;;;;;;;52.95;49.95;;;;;;;22.10;52.39;100855.81;5046864;28;20037;-73
2022/09/13 01:06:41;;;;;;;50.90;47.90;;;;;;;22.09;51.92;100854.19;5046243;28;20033;-73
2022/09/13 01:09:09;;;;;;;51.72;48.75;;;;;;;22.08;51.78;100849.81;5035079;28;20032;-72
2022/09/13 01:11:54;;;;;;;52.72;49.65;;;;;;;22.07;52.13;100861.13;5034607;28;20052;-73
2022/09/13 01:14:22;;;;;;;51.53;48.70;;;;;;;22.05;52.26;100853.22;5041630;28;20040;-73
2022/09/13 01:16:47;;;;;;;50.30;47.30;;;;;;;22.04;52.30;100860.63;5034351;28;20065;-73
2022/09/13 01:19:12;;;;;;;53.47;50.67;;;;;;;22.03;52.11;100856.28;5032803;28;20442;-71
2022/09/13 01:22:15;;;;;;;51.50;48.50;;;;;;;22.02;52.36;100864.84;5044606;28;20037;-74
2022/09/13 01:24:46;;;;;;;52.40;49.35;;;;;;;21.99;52.22;100860.78;5047706;28;20041;-73
2022/09/13 01:27:22;;;;;;;52.90;49.85;;;;;;;21.99;52.54;100854.47;5049406;28;20189;-74
2022/09/13 01:29:56;;;;;;;51.85;48.40;;;;;;;21.97;52.18;100853.97;5043673;28;20503;-73
2022/09/13 01:32:36;;;;;;;52.88;49.45;;;;;;;21.96;52.57;100855.09;5048111;28;20031;-72
2022/09/13 01:35:40;;;;;;;51.30;48.13;;;;;;;21.95;52.50;100845.25;5041744;28;20473;-73
2022/09/13 01:38:15;;;;;;;54.15;50.85;;;;;;;21.92;52.00;100843.09;5051820;28;20032;-72
2022/09/13 01:40:59;;;;;;;51.85;48.33;;;;;;;21.91;51.94;100836.00;5052165;28;20079;-72
2022/09/13 01:43:31;;;;;;;51.47;48.30;;;;;;;21.90;52.27;100837.09;5055351;28;20043;-71
2022/09/13 01:46:05;;;;;;;52.10;49.10;;;;;;;21.89;52.23;100830.00;5043962;28;20048;-74
2022/09/13 01:48:53;;;;;;;49.72;46.83;;;;;;;21.88;52.23;100831.13;5033883;28;20038;-74
2022/09/13 01:51:31;;;;;;;49.38;46.50;;;;;;;21.86;52.58;100828.69;5037356;28;20167;-74
2022/09/13 01:54:11;;;;;;;51.42;48.38;;;;;;;21.84;52.62;100830.94;5051139;28;20029;-73
2022/09/13 01:56:52;;;;;;;48.13;45.42;;;;;;;21.84;52.45;100830.94;5057485;28;20034;-74
2022/09/13 01:59:36;;;;;;;51.85;48.10;;;;;;;21.83;52.72;100838.38;5055884;28;20056;-73
2022/09/13 02:02:12;;;;;;;53.28;49.75;;;;;;;21.81;52.36;100839.84;5047989;28;20037;-73
2022/09/13 02:04:43;;;;;;;53.03;49.92;;;;;;;21.80;52.28;100838.22;5038131;28;20035;-74
2022/09/13 02:07:15;;;;;;;50.90;48.00;;;;;;;21.79;52.35;100836.59;5061690;28;20040;-73
2022/09/13 02:09:45;;;;;;;49.35;46.63;;;;;;;21.78;52.69;100838.53;5035713;28;20484;-73
2022/09/13 02:12:21;;;;;;;53.85;50.80;;;;;;;21.76;52.85;100832.53;5036874;28;20473;-73
2022/09/13 02:14:58;;;;;;;52.28;49.58;;;;;;;21.76;52.36;100827.03;5051568;28;20040;-75
2022/09/13 02:17:28;;;;;;;49.97;47.28;;;;;;;21.75;52.94;100830.09;5054813;28;20024;-73
2022/09/13 02:20:01;;;;;;;49.25;46.42;;;;;;;21.73;52.49;100830.41;5052788;28;20029;-74
2022/09/13 02:22:33;;;;;;;48.55;45.88;;;;;;;21.73;53.05;100844.16;5063838;28;20062;-73
2022/09/13 02:25:05;;;;;;;51.65;48.60;;;;;;;21.72;52.91;100849.97;5052155;28;20033;-73
2022/09/13 02:27:34;;;;;;;50.58;47.72;;;;;;;21.71;52.66;100851.09;5047132;28;20052;-74
2022/09/13 02:30:10;;;;;;;49.78;47.05;;;;;;;21.69;52.99;100859.66;5050590;28;20491;-75
2022/09/13 02:32:49;;;;;;;49.92;47.13;;;;;;;21.69;53.02;100862.41;5056427;28;20082;-73
2022/09/13 02:35:23;;;;;;;52.50;49.38;;;;;;;21.67;52.70;100859.19;5056460;28;20082;-74
2022/09/13 02:37:59;;;;;;;48.47;45.40;;;;;;;21.66;53.29;100867.72;5063562;28;20036;-73
2022/09/13 02:40:39;;;;;;;50.55;47.72;;;;;;;21.66;53.33;100864.97;5056805;28;20052;-72
2022/09/13 02:43:09;;;;;;;50.28;47.38;;;;;;;21.64;52.90;100862.53;5048662;28;20032;-73
2022/09/13 02:45:55;;;;;;;51.22;48.33;;;;;;;21.64;52.77;100867.22;5048670;28;20103;-73
2022/09/13 02:48:33;;;;;;;51.33;48.53;;;;;;;21.63;53.06;100860.13;5052044;28;20104;-73
2022/09/13 02:51:31;;;;;;;50.22;47.03;;;;;;;21.61;53.00;100863.97;5057173;28;20036;-76
2022/09/13 02:54:35;;;;;;;52.45;49.17;;;;;;;21.60;53.13;100856.06;5048796;28;20397;-73
2022/09/13 02:57:27;;;;;;;52.42;49.13;;;;;;;21.58;53.14;100859.13;5047948;28;20099;-77
2022/09/13 02:59:52;;;;;;;51.20;48.40;;;;;;;21.56;53.02;100860.56;5053194;28;20028;-73
2022/09/13 03:02:21;;;;;;;53.30;50.00;;;;;;;21.56;53.28;100855.84;5056233;28;20092;-74
2022/09/13 03:04:49;;;;;;;51.20;47.80;;;;;;;21.55;52.74;100854.25;5052306;28;20040;-72
2022/09/13 03:07:15;;;;;;;50.63;47.72;;;;;;;21.54;52.75;100852.59;5057392;28;20033;-72
2022/09/13 03:10:06;;;;;;;50.90;48.03;;;;;;;21.53;53.15;100859.25;5055870;28;20041;-73
2022/09/13 03:12:43;;;;;;;49.85;46.95;;;;;;;21.53;53.23;100863.94;5056951;28;20036;-74
2022/09/13 03:15:21;;;;;;;50.45;47.35;;;;;;;21.51;53.21;100858.75;5046624;28;20108;-73
2022/09/13 03:18:19;;;;;;;51.53;48.10;;;;;;;21.51;53.26;100850.50;5051461;28;20098;-73
2022/09/13 03:21:09;;;;;;;50.47;47.58;;;;;;;21.49;53.20;100857.44;5050396;28;20067;-73
2022/09/13 03:23:44;;;;;;;49.58;46.80;;;;;;;21.48;53.03;100867.63;5055155;28;20154;-74
2022/09/13 03:26:35;;;;;;;50.42;47.63;;;;;;;21.48;53.19;100850.31;5053316;28;20036;-74
2022/09/13 03:29:12;;;;;;;49.10;46.40;;;;;;;21.46;53.56;100847.88;5060730;28;20067;-73
2022/09/13 03:31:50;;;;;;;49.23;46.53;;;;;;;21.45;53.62;100857.25;5050464;28;20032;-73
2022/09/13 03:34:29;;;;;;;50.60;47.90;;;;;;;21.44;53.65;100843.81;5038825;28;20707;-72
2022/09/13 03:37:02;;;;;;;49.83;46.65;;;;;;;21.43;53.31;100856.75;5047749;28;20029;-73
2022/09/13 03:39:41;;;;;;;49.28;46.50;;;;;;;21.43;53.44;100864.19;5055553;28;20025;-74
2022/09/13 03:42:21;;;;;;;48.10;45.20;;;;;;;21.42;53.43;100863.38;5053740;28;20464;-73
2022/09/13 03:44:50;;;;;;;49.30;46.65;;;;;;;21.41;53.66;100858.19;5053012;28;20039;-73
2022/09/13 03:47:17;;;;;;;51.70;48.47;;;;;;;21.40;53.92;100851.88;5046923;28;20477;-73
2022/09/13 03:49:43;;;;;;;51.95;48.65;;;;;;;21.38;53.49;100845.84;5055219;28;20033;-73
2022/09/13 03:52:10;;;;;;;50.75;47.83;;;;;;;21.38;53.68;100846.69;5058145;28;20101;-73
2022/09/13 03:54:37;;;;;;;49.33;46.55;;;;;;;21.37;53.47;100847.00;5053495;28;20029;-73
2022/09/13 03:57:20;;;;;;;48.10;45.53;;;;;;;21.38;53.66;100851.34;5048505;28;20036;-74
2022/09/13 03:59:56;;;;;;;49.25;46.22;;;;;;;21.36;54.00;100854.41;5066966;28;20492;-72
2022/09/13 04:02:23;;;;;;;51.85;48.58;;;;;;;21.36;53.69;100859.09;5063205;28;20033;-72
2022/09/13 04:04:49;;;;;;;49.42;46.50;;;;;;;21.35;53.96;100852.78;5061950;28;20358;-73
2022/09/13 04:07:20;;;;;;;50.55;47.75;;;;;;;21.34;53.69;100856.69;5056016;28;20128;-73
2022/09/13 04:09:46;;;;;;;51.05;48.25;;;;;;;21.33;53.96;100860.53;5054633;28;20384;-73
2022/09/13 04:12:13;;;;;;;52.53;49.42;;;;;;;21.33;53.68;100867.97;5055683;28;20693;-75
2022/09/13 04:14:39;;;;;;;49.38;46.53;;;;;;;21.32;53.63;100864.41;5058187;28;20044;-73
2022/09/13 04:17:05;;;;;;;50.25;46.55;;;;;;;21.32;53.90;100866.34;5062325;28;20066;-72
2022/09/13 04:19:31;;;;;;;54.15;50.78;;;;;;;21.31;53.89;100864.72;5051139;28;20070;-72
2022/09/13 04:21:56;;;;;;;51.13;47.80;;;;;;;21.30;54.11;100869.41;5061400;28;20033;-73
2022/09/13 04:24:25;;;;;;;50.67;47.70;;;;;;;21.30;53.79;100871.34;5068614;28;20037;-74
2022/09/13 04:26:52;;;;;;;50.53;47.30;;;;;;;21.30;53.90;100874.09;5061966;28;20053;-73
2022/09/13 04:29:18;;;;;;;49.03;45.33;;;;;;;21.29;53.67;100872.44;5052409;28;20045;-75
2022/09/13 04:31:44;;;;;;;48.70;46.05;;;;;;;21.28;54.13;100879.09;5057392;28;20036;-72
2022/09/13 04:34:10;;;;;;;50.10;47.03;;;;;;;21.26;53.52;100879.38;5059351;28;20033;-78
2022/09/13 04:36:35;;;;;;;50.35;47.55;;;;;;;21.26;53.96;100884.88;5059029;28;20032;-74
2022/09/13 04:39:01;;;;;;;49.03;46.20;;;;;;;21.25;53.87;100887.94;5057337;28;20452;-74
2022/09/13 04:41:27;;;;;;;52.33;49.30;;;;;;;21.24;53.61;100887.13;5065996;28;20036;-73
2022/09/13 04:43:52;;;;;;;51.33;48.17;;;;;;;21.24;53.94;100883.56;5069065;28;20075;-74
2022/09/13 04:46:18;;;;;;;52.55;49.47;;;;;;;21.22;53.92;100883.88;5055482;28;20473;-74
2022/09/13 04:48:51;;;;;;;49.78;47.08;;;;;;;21.22;53.73;100872.06;5052041;28;20032;-73
2022/09/13 04:51:17;;;;;;;50.70;47.60;;;;;;;21.21;53.73;100878.69;5060903;28;20024;-74
2022/09/13 04:53:44;;;;;;;50.97;47.83;;;;;;;21.20;54.13;100877.88;5060831;28;20108;-76
2022/09/13 04:56:11;;;;;;;49.13;46.22;;;;;;;21.20;54.01;100882.56;5049576;28;20029;-77
2022/09/13 04:58:36;;;;;;;53.88;50.58;;;;;;;21.18;54.17;100875.44;5058736;28;20033;-74
2022/09/13 05:01:03;;;;;;;49.33;46.42;;;;;;;21.18;53.65;100872.69;5051827;28;20052;-73
2022/09/13 05:03:30;;;;;;;51.83;48.72;;;;;;;21.16;53.77;100869.44;5052296;28;20028;-73
2022/09/13 05:06:02;;;;;;;51.20;48.40;;;;;;;21.16;54.17;100876.88;5054317;28;20075;-76
2022/09/13 05:08:27;;;;;;;50.42;47.42;;;;;;;21.15;53.71;100884.31;5066027;28;20040;-74
2022/09/13 05:10:52;;;;;;;49.78;46.88;;;;;;;21.14;54.27;100882.69;5058144;28;20060;-73
2022/09/13 05:13:18;;;;;;;50.80;47.47;;;;;;;21.13;53.82;100878.31;5052059;28;20385;-75
2022/09/13 05:15:43;;;;;;;48.38;45.47;;;;;;;21.13;54.03;100880.25;5050952;28;20040;-74
2022/09/13 05:18:09;;;;;;;49.33;46.53;;;;;;;21.12;53.80;100878.63;5056801;28;20050;-73
2022/09/13 05:20:34;;;;;;;47.97;45.17;;;;;;;21.11;53.65;100877.00;5057762;28;20064;-73
2022/09/13 05:22:59;;;;;;;50.28;47.42;;;;;;;21.10;54.26;100884.44;5053663;28;20095;-73
2022/09/13 05:25:25;;;;;;;51.97;48.78;;;;;;;21.10;54.19;100886.38;5052189;28;20045;-73
2022/09/13 05:27:50;;;;;;;48.53;45.95;;;;;;;21.09;53.81;100892.97;5052095;28;20462;-73
2022/09/13 05:30:16;;;;;;;49.25;46.25;;;;;;;21.08;54.21;100885.88;5056046;28;20044;-74
2022/09/13 05:32:41;;;;;;;49.67;46.65;;;;;;;21.07;54.06;100895.25;5059182;28;20032;-73
2022/09/13 05:35:07;;;;;;;48.25;45.53;;;;;;;21.06;54.30;100897.16;5051420;28;20032;-73
2022/09/13 05:37:32;;;;;;;50.10;46.70;;;;;;;21.05;54.40;100898.28;5062302;28;20043;-76
2022/09/13 05:39:58;;;;;;;48.15;45.47;;;;;;;21.04;54.29;100899.41;5066941;28;20063;-73
2022/09/13 05:42:23;;;;;;;51.83;48.78;;;;;;;21.04;54.49;100893.94;5052025;28;20064;-72
2022/09/13 05:44:48;;;;;;;50.35;47.25;;;;;;;21.02;54.42;100887.91;5050793;28;20032;-73
2022/09/13 05:47:14;;;;;;;50.60;46.78;;;;;;;21.02;54.21;100901.66;5056133;28;20033;-75
2022/09/13 05:49:39;;;;;;;47.78;44.95;;;;;;;21.01;54.36;100888.22;5058166;28;20434;-72
2022/09/13 05:52:05;;;;;;;47.17;44.20;;;;;;;21.00;54.52;100890.16;5054389;28;20376;-72
2022/09/13 05:54:30;;;;;;;49.75;46.65;;;;;;;21.00;54.79;100892.91;5062582;28;20064;-72
2022/09/13 05:56:56;;;;;;;49.28;46.38;;;;;;;20.99;54.33;100894.03;5055649;28;20044;-73
2022/09/13 05:59:21;;;;;;;52.03;48.92;;;;;;;20.99;54.42;100895.94;5055663;28;20449;-74
2022/09/13 06:01:47;;;;;;;50.80;47.75;;;;;;;20.98;54.66;100908.88;5056216;28;20540;-73
2022/09/13 06:04:13;;;;;;;48.72;45.42;;;;;;;20.98;54.58;100899.81;5054284;28;20108;-74
2022/09/13 06:06:39;;;;;;;49.80;46.42;;;;;;;20.97;54.42;100907.25;5055753;28;20041;-76
2022/09/13 06:09:07;;;;;;;50.63;47.63;;;;;;;20.96;54.96;100903.72;5055816;28;20439;-75
2022/09/13 06:11:32;;;;;;;51.60;48.30;;;;;;;20.95;54.85;100907.56;5053304;28;20025;-72
2022/09/13 06:13:58;;;;;;;52.42;49.30;;;;;;;20.95;54.57;100901.25;5051518;28;20126;-73
2022/09/13 06:16:23;;;;;;;52.53;49.42;;;;;;;20.95;55.06;100893.03;5067908;28;20102;-70
2022/09/13 06:18:48;;;;;;;52.55;49.35;;;;;;;20.93;55.20;100896.06;5060727;28;20070;-73
2022/09/13 06:21:17;;;;;;;49.40;46.42;;;;;;;20.92;54.74;100897.19;5055245;28;20039;-75
2022/09/13 06:23:47;;;;;;;49.10;45.97;;;;;;;20.92;54.84;100901.88;5050760;28;20039;-73
2022/09/13 06:26:14;;;;;;;50.03;46.80;;;;;;;20.90;54.82;100893.94;5059453;28;20037;-74
2022/09/13 06:28:40;;;;;;;51.08;48.03;;;;;;;20.91;55.36;100897.50;5053800;28;20621;-73
2022/09/13 06:31:13;;;;;;;52.10;48.92;;;;;;;20.91;55.09;100892.00;5049434;28;20544;-74
2022/09/13 06:33:40;;;;;;;51.53;48.38;;;;;;;20.90;55.44;100893.13;5065835;28;20289;-72
2022/09/13 06:36:14;;;;;;;52.70;49.10;;;;;;;20.90;54.80;100895.88;5059775;28;20032;-72
2022/09/13 06:38:40;;;;;;;51.05;47.47;;;;;;;20.88;55.17;100890.69;5047293;28;20124;-74
2022/09/13 06:41:08;;;;;;;49.67;46.47;;;;;;;20.88;55.13;100884.38;5036397;28;20108;-75
2022/09/13 06:43:34;;;;;;;51.55;48.28;;;;;;;20.88;55.51;100890.69;5048849;28;20035;-71
2022/09/13 06:46:12;;;;;;;48.40;45.50;;;;;;;20.87;55.26;100891.81;5051807;28;20365;-72
2022/09/13 06:48:39;;;;;;;51.35;48.17;;;;;;;20.87;55.40;100894.56;5059107;28;20108;-72
2022/09/13 06:51:08;;;;;;;49.33;45.83;;;;;;;20.87;55.65;100893.75;5035387;28;20087;-72
2022/09/13 06:53:35;;;;;;;50.45;47.30;;;;;;;20.86;55.15;100887.44;5034551;28;20735;-71
2022/09/13 06:56:13;;;;;;;49.90;46.70;;;;;;;20.87;55.54;100896.50;5057598;28;20107;-72
2022/09/13 06:58:40;;;;;;;49.40;46.30;;;;;;;20.86;55.68;100898.41;5045401;28;20029;-71
2022/09/13 07:01:15;;;;;;;49.03;45.92;;;;;;;20.86;55.62;100897.59;5051178;28;20361;-71
2022/09/13 07:03:52;;;;;;;51.42;48.13;;;;;;;20.85;56.13;100894.06;5046394;28;20216;-71
2022/09/13 07:06:23;;;;;;;50.08;46.83;;;;;;;20.84;55.88;100892.44;5045834;28;20052;-71
2022/09/13 07:08:50;;;;;;;49.75;46.88;;;;;;;20.85;55.54;100893.25;5050434;28;20048;-71
2022/09/13 07:11:17;;;;;;;50.30;47.15;;;;;;;20.85;55.85;100896.00;5048086;28;20037;-72
2022/09/13 07:13:48;;;;;;;51.90;48.15;;;;;;;20.84;55.96;100895.19;5034597;28;20788;-70
2022/09/13 07:16:13;;;;;;;52.30;48.88;;;;;;;20.84;55.83;100888.84;5052686;28;20028;-75
2022/09/13 07:18:39;;;;;;;55.50;52.03;;;;;;;20.86;56.21;100894.84;5043683;28;20037;-78
2022/09/13 07:21:07;;;;;;;51.55;48.35;;;;;;;20.87;56.14;100902.00;5045654;28;20517;-74
2022/09/13 07:23:35;;;;;;;51.08;47.88;;;;;;;20.86;56.49;100906.66;5047038;28;20033;-73
2022/09/13 07:26:01;;;;;;;52.75;49.00;;;;;;;20.87;56.34;100902.81;5057118;28;20033;-73
2022/09/13 07:28:32;;;;;;;52.40;48.80;;;;;;;20.89;56.56;100910.72;5037631;28;20076;-72
2022/09/13 07:31:07;;;;;;;52.72;49.40;;;;;;;20.89;56.43;100907.97;5044329;28;20541;-73
2022/09/13 07:33:32;;;;;;;55.45;51.17;;;;;;;20.89;56.13;100907.97;5049368;28;20393;-73
2022/09/13 07:36:00;;;;;;;57.97;54.28;;;;;;;20.90;56.29;100915.09;5052006;28;20036;-73
2022/09/13 07:38:25;;;;;;;50.80;47.78;;;;;;;20.90;56.49;100915.09;5047873;28;20444;-72
2022/09/13 07:40:56;;;;;;;51.28;47.78;;;;;;;20.92;57.00;100912.88;5035311;28;20533;-73
2022/09/13 07:43:22;;;;;;;55.47;51.58;;;;;;;20.92;56.92;100910.13;5054790;28;20539;-72
2022/09/13 07:45:56;;;;;;;53.88;50.33;;;;;;;20.93;57.30;100909.78;5030289;28;20073;-72
2022/09/13 07:48:22;;;;;;;57.88;54.17;;;;;;;20.93;57.10;100907.03;5076466;28;20029;-71
2022/09/13 07:50:56;;;;;;;54.60;50.88;;;;;;;20.95;57.67;100920.47;5049447;28;20305;-72
2022/09/13 07:53:22;;;;;;;52.90;49.28;;;;;;;20.95;57.31;100917.72;5050427;28;20086;-71
2022/09/13 07:55:47;;;;;;;56.08;52.60;;;;;;;20.96;57.35;100922.09;5045382;28;20037;-73
2022/09/13 07:58:12;;;;;;;55.90;52.20;;;;;;;20.99;57.62;100917.91;5037801;28;20082;-73
2022/09/13 08:00:38;;;;;;;56.47;52.28;;;;;;;21.01;57.45;100923.91;5048236;28;20033;-73
2022/09/13 08:03:03;;;;;;;56.55;52.63;;;;;;;21.01;58.15;100916.50;5042149;28;20500;-73
2022/09/13 08:05:28;;;;;;;56.83;52.63;;;;;;;21.02;58.03;100923.63;5031625;28;20025;-73
2022/09/13 08:07:54;;;;;;;53.50;49.85;;;;;;;21.05;58.24;100925.75;5013899;28;20039;-73
2022/09/13 08:10:19;;;;;;;55.58;50.95;;;;;;;21.06;57.86;100927.34;5063000;28;20029;-74
2022/09/13 08:12:44;;;;;;;55.40;51.20;;;;;;;21.08;58.25;100925.13;5040673;28;20040;-73
2022/09/13 08:15:10;;;;;;;52.28;48.58;;;;;;;21.09;57.91;100918.53;5046243;28;20112;-73
2022/09/13 08:17:35;;;;;;;53.55;49.90;;;;;;;21.11;58.06;100924.50;5048848;28;20132;-73
2022/09/13 08:20:01;;;;;;;54.83;50.70;;;;;;;21.14;57.67;100918.41;5061354;28;20044;-71
2022/09/13 08:22:26;;;;;;;54.33;50.38;;;;;;;21.18;58.34;100926.81;5037968;28;20384;-71
2022/09/13 08:24:51;;;;;;;56.17;52.05;;;;;;;21.21;58.08;100931.69;5051799;28;20047;-73
2022/09/13 08:27:16;;;;;;;57.25;52.60;;;;;;;21.24;58.53;100930.25;5049702;28;20049;-73
2022/09/13 08:29:42;;;;;;;57.92;53.17;;;;;;;21.26;58.26;100936.28;5050541;28;20041;-72
2022/09/13 08:32:07;;;;;;;55.97;51.38;;;;;;;21.27;58.60;100938.72;5036994;28;20393;-72
2022/09/13 08:34:32;;;;;;;53.80;49.55;;;;;;;21.30;58.40;100940.84;5038135;28;20497;-74
2022/09/13 08:36:58;;;;;;;53.47;49.72;;;;;;;21.33;58.13;100940.22;5043107;28;20412;-72
2022/09/13 08:39:24;;;;;;;54.08;50.30;;;;;;;21.35;58.17;100937.97;5051026;28;20063;-72
2022/09/13 08:42:20;;;;;;;52.05;48.58;;;;;;;21.39;58.21;100938.19;5048419;28;20289;-71
2022/09/13 08:44:51;;;;;;;53.85;50.03;;;;;;;21.42;58.53;100937.59;5046453;28;20044;-76
2022/09/13 08:47:26;;;;;;;55.72;51.95;;;;;;;21.45;57.76;100936.16;5050319;28;20061;-72
2022/09/13 08:50:00;;;;;;;53.95;50.25;;;;;;;21.47;58.30;100937.47;5034884;28;20029;-71
2022/09/13 08:52:46;;;;;;;54.33;50.42;;;;;;;21.50;58.67;100933.28;5048053;28;20048;-73
2022/09/13 08:55:24;;;;;;;56.28;52.38;;;;;;;21.54;58.54;100934.25;5042722;28;20056;-72
2022/09/13 08:58:08;;;;;;;53.33;49.92;;;;;;;21.56;58.24;100926.53;5055905;28;20358;-74
2022/09/13 09:00:48;;;;;;;53.25;49.55;;;;;;;21.59;58.50;100929.44;5035718;28;20029;-73
2022/09/13 09:03:34;;;;;;;54.30;50.85;;;;;;;21.61;57.80;100924.44;5041064;28;20040;-73
2022/09/13 09:06:00;;;;;;;56.83;52.72;;;;;;;21.63;58.19;100921.41;5042653;28;20071;-73
2022/09/13 09:08:30;;;;;;;55.15;51.55;;;;;;;21.66;58.34;100918.00;5053208;28;20112;-71
2022/09/13 09:11:00;;;;;;;53.97;50.15;;;;;;;21.69;58.51;100917.38;5051612;28;20025;-73
2022/09/13 09:13:34;;;;;;;53.58;50.13;;;;;;;21.72;58.68;100918.69;5037431;28;20033;-72
2022/09/13 09:16:28;;;;;;;55.80;51.78;;;;;;;21.77;58.94;100924.06;5044893;28;20124;-71
2022/09/13 09:19:06;;;;;;;56.28;52.63;;;;;;;21.80;58.24;100916.00;5030667;28;20474;-74
2022/09/13 09:21:32;;;;;;;55.67;51.75;;;;;;;21.82;58.64;100921.19;5035990;28;20481;-72
2022/09/13 09:24:01;;;;;;;55.50;51.78;;;;;;;21.86;58.78;100919.44;5052961;28;20029;-71
2022/09/13 09:26:29;;;;;;;55.40;51.80;;;;;;;21.88;58.16;100928.19;5051231;28;20037;-74
2022/09/13 09:29:04;;;;;;;52.10;48.80;;;;;;;21.90;57.83;100930.63;5066012;28;20065;-73
2022/09/13 09:31:48;;;;;;;57.97;53.38;;;;;;;21.91;57.81;100933.06;5043572;28;20101;-72
2022/09/13 09:34:26;;;;;;;55.85;51.85;;;;;;;21.95;58.53;100925.00;5048819;28;20037;-72
2022/09/13 09:37:20;;;;;;;55.50;51.35;;;;;;;21.98;58.41;100925.19;5040453;28;20090;-73
2022/09/13 09:39:46;;;;;;;58.13;54.33;;;;;;;22.02;58.52;100926.19;5047361;28;20038;-74
2022/09/13 09:42:16;;;;;;;55.20;51.50;;;;;;;22.05;58.82;100924.75;5048939;28;20358;-75
2022/09/13 09:44:45;;;;;;;61.72;57.85;;;;;;;22.09;58.17;100924.91;5040068;28;20133;-73
2022/09/13 09:47:31;;;;;;;55.20;51.47;;;;;;;22.13;58.34;100923.16;5047732;28;20086;-73
2022/09/13 09:50:08;;;;;;;56.00;52.58;;;;;;;22.16;57.97;100930.78;5045205;28;20035;-72
2022/09/13 09:52:40;;;;;;;55.05;51.35;;;;;;;22.18;57.79;100928.53;5032731;28;20029;-74
2022/09/13 09:55:16;;;;;;;57.08;53.47;;;;;;;22.21;57.98;100923.22;5036448;28;20029;-72
2022/09/13 09:57:51;;;;;;;58.33;54.72;;;;;;;22.24;57.65;100919.81;5040324;28;20040;-73
2022/09/13 10:00:18;;;;;;;52.90;49.50;;;;;;;22.29;58.06;100926.31;5038113;28;20444;-71
2022/09/13 10:02:46;;;;;;;57.78;53.88;;;;;;;22.32;58.20;100925.69;5045832;28;20033;-73
2022/09/13 10:05:16;;;;;;;56.75;53.25;;;;;;;22.35;57.78;100920.38;5034924;28;20072;-73
2022/09/13 10:07:43;;;;;;;58.08;54.38;;;;;;;22.38;58.38;100914.22;5050423;28;20020;-73
2022/09/13 10:10:21;;;;;;;59.13;55.05;;;;;;;22.44;58.80;100912.13;5040476;28;20048;-73
2022/09/13 10:12:51;;;;;;;;;;;;;;;22.46;57.89;100916.19;5050429;28;20024;-73
2022/09/13 10:15:26;;;;;;;55.30;51.95;;;;;;;22.50;57.85;100915.56;5050611;28;19919;-75
2022/09/13 10:18:21;;;;;;;55.55;52.00;;;;;;;22.53;58.56;100915.75;5033216;28;20064;-73
2022/09/13 10:21:06;;;;;;;56.22;52.88;;;;;;;22.57;58.15;100910.41;5058594;28;20034;-72
2022/09/13 10:23:34;;;;;;;56.80;53.20;;;;;;;22.59;58.08;100917.19;5038015;28;20072;-74
2022/09/13 10:26:02;;;;;;;57.57;53.90;;;;;;;22.64;57.91;100910.75;5040256;28;20049;-73
2022/09/13 10:28:29;;;;;;;;;;;;;;;22.68;57.46;100911.72;5034308;28;20841;-72
2022/09/13 10:31:10;;;;;;;56.60;53.42;;;;;;;22.70;57.64;100914.94;5045832;28;19916;-72
2022/09/13 10:33:39;;;;;;;58.97;55.35;;;;;;;22.74;57.91;100912.38;5033661;28;20029;-74
2022/09/13 10:36:17;;;;;;;55.50;52.15;;;;;;;22.78;57.99;100910.59;5041437;28;20061;-73
2022/09/13 10:38:59;;;;;;;56.55;53.15;;;;;;;22.82;58.22;100906.88;5031175;28;20068;-74
2022/09/13 10:41:27;;;;;;;58.47;55.17;;;;;;;22.86;58.39;100913.38;5051905;28;20021;-74
2022/09/13 10:44:01;;;;;;;56.70;53.20;;;;;;;22.90;58.43;100910.78;5032559;28;20045;-73
2022/09/13 10:46:32;;;;;;;56.30;53.20;;;;;;;22.93;58.41;100910.16;5041255;28;20424;-73
2022/09/13 10:48:59;;;;;;;52.58;49.78;;;;;;;22.97;58.10;100896.53;5043978;28;20029;-71
2022/09/13 10:51:25;;;;;;;56.83;53.75;;;;;;;23.00;57.72;100888.47;5051274;28;20403;-71
2022/09/13 10:54:05;;;;;;;57.78;54.42;;;;;;;23.03;57.98;100889.75;5048912;28;20119;-72
2022/09/13 10:56:31;;;;;;;57.97;54.60;;;;;;;23.06;57.79;100884.44;5045444;28;20139;-73
2022/09/13 10:59:23;;;;;;;56.78;53.30;;;;;;;23.10;58.26;100888.13;5034971;28;20479;-73
2022/09/13 11:02:39;;;;;;;56.08;52.97;;;;;;;23.14;58.25;100885.56;5050628;28;20021;-72
2022/09/13 11:05:10;;;;;;;54.60;51.33;;;;;;;23.19;57.81;100881.84;5015645;28;20124;-72
2022/09/13 11:08:01;;;;;;;58.70;55.42;;;;;;;23.22;57.82;100876.47;5039953;28;20030;-72
2022/09/13 11:10:57;;;;;;;54.25;51.55;;;;;;;23.26;57.85;100877.47;5031209;28;20064;-73
2022/09/13 11:13:39;;;;;;;59.17;56.13;;;;;;;23.33;57.81;100876.94;5037851;28;20028;-72
2022/09/13 11:16:30;;;;;;;54.58;51.83;;;;;;;23.36;57.39;100873.56;5050451;28;20025;-73
2022/09/13 11:19:13;;;;;;;59.83;56.72;;;;;;;23.39;57.51;100870.16;5033075;28;20032;-72
2022/09/13 11:22:13;;;;;;;55.60;52.47;;;;;;;23.43;57.08;100875.81;5030941;28;20121;-72
2022/09/13 11:24:54;;;;;;;55.55;52.75;;;;;;;23.45;57.34;100868.03;5039108;28;20056;-73
2022/09/13 11:28:02;;;;;;;59.35;56.05;;;;;;;23.50;57.37;100874.19;5050692;28;20048;-73
2022/09/13 11:30:35;;;;;;;59.42;56.33;;;;;;;23.53;56.85;100868.00;5046247;28;20031;-73